sensor_id;sensor_type;location;lat;lon;timestamp;pressure;altitude;pressure_sealevel;temperature;humidity
6853;BME280;3465;42.144;24.722;2023-07-09T00:00:50;148691.50;;;23.05;75.25
6853;BME280;3465;42.144;24.722;2023-07-09T00:03:18;148666.19;;;22.95;75.23
6853;BME280;3465;42.144;24.722;2023-07-09T00:08:30;148637.09;;;22.84;75.82
6853;BME280;3465;42.144;24.722;2023-07-09T00:10:57;148609.28;;;22.73;75.82
6853;BME280;3465;42.144;24.722;2023-07-09T00:13:25;148604.19;;;22.71;75.85
6853;BME280;3465;42.144;24.722;2023-07-09T00:15:51;148529.56;;;22.41;76.06
6853;BME280;3465;42.144;24.722;2023-07-09T00:18:17;148585.25;;;22.63;75.89
6853;BME280;3465;42.144;24.722;2023-07-09T00:20:43;148583.97;;;22.62;75.77
6853;BME280;3465;42.144;24.722;2023-07-09T00:23:10;148580.16;;;22.61;76.25
6853;BME280;3465;42.144;24.722;2023-07-09T00:25:40;148559.94;;;22.53;76.19
6853;BME280;3465;42.144;24.722;2023-07-09T00:28:19;148549.78;;;22.49;75.81
6853;BME280;3465;42.144;24.722;2023-07-09T00:30:46;148532.06;;;22.42;76.47
6853;BME280;3465;42.144;24.722;2023-07-09T00:33:12;148521.97;;;22.38;76.27
6853;BME280;3465;42.144;24.722;2023-07-09T00:35:42;148520.69;;;22.37;76.01
6853;BME280;3465;42.144;24.722;2023-07-09T00:38:15;148521.97;;;22.38;76.00
6853;BME280;3465;42.144;24.722;2023-07-09T00:40:47;148501.75;;;22.30;75.66
6853;BME280;3465;42.144;24.722;2023-07-09T00:43:15;148486.59;;;22.24;75.39
6853;BME280;3465;42.144;24.722;2023-07-09T00:45:41;148481.53;;;22.22;75.84
6853;BME280;3465;42.144;24.722;2023-07-09T00:48:14;148470.16;;;22.17;74.98
6853;BME280;3465;42.144;24.722;2023-07-09T00:50:46;148460.00;;;22.13;74.70
6853;BME280;3465;42.144;24.722;2023-07-09T00:53:24;148446.13;;;22.08;75.08
6853;BME280;3465;42.144;24.722;2023-07-09T00:55:57;148477.72;;;22.20;74.06
6853;BME280;3465;42.144;24.722;2023-07-09T00:58:24;148494.16;;;22.27;73.91
6853;BME280;3465;42.144;24.722;2023-07-09T01:00:56;148506.81;;;22.32;72.99
6853;BME280;3465;42.144;24.722;2023-07-09T01:03:45;148504.25;;;22.31;72.89
6853;BME280;3465;42.144;24.722;2023-07-09T01:06:12;148515.63;;;22.35;72.30
6853;BME280;3465;42.144;24.722;2023-07-09T01:08:39;148518.19;;;22.36;72.21
6853;BME280;3465;42.144;24.722;2023-07-09T01:11:17;148505.53;;;22.31;72.21
6853;BME280;3465;42.144;24.722;2023-07-09T01:13:48;148496.69;;;22.28;72.58
6853;BME280;3465;42.144;24.722;2023-07-09T01:16:13;148471.38;;;22.18;73.12
6853;BME280;3465;42.144;24.722;2023-07-09T01:18:40;148476.44;;;22.20;72.91
6853;BME280;3465;42.144;24.722;2023-07-09T01:21:08;148472.66;;;22.18;72.87
6853;BME280;3465;42.144;24.722;2023-07-09T01:23:41;148451.16;;;22.10;72.96
6853;BME280;3465;42.144;24.722;2023-07-09T01:26:10;148427.13;;;22.00;73.23
6853;BME280;3465;42.144;24.722;2023-07-09T01:28:36;148446.13;;;22.08;73.60
6853;BME280;3465;42.144;24.722;2023-07-09T01:31:02;148425.91;;;22.00;73.22
6853;BME280;3465;42.144;24.722;2023-07-09T01:33:29;148422.06;;;21.98;73.29
6853;BME280;3465;42.144;24.722;2023-07-09T01:35:55;148424.63;;;21.99;73.45
6853;BME280;3465;42.144;24.722;2023-07-09T01:38:26;148419.56;;;21.97;73.59
6853;BME280;3465;42.144;24.722;2023-07-09T01:40:56;148400.59;;;21.90;73.87
6853;BME280;3465;42.144;24.722;2023-07-09T01:43:23;148420.84;;;21.98;73.58
6853;BME280;3465;42.144;24.722;2023-07-09T01:45:50;148389.25;;;21.85;73.08
6853;BME280;3465;42.144;24.722;2023-07-09T01:48:17;148406.91;;;21.92;73.20
6853;BME280;3465;42.144;24.722;2023-07-09T01:50:43;148394.25;;;21.87;73.52
6853;BME280;3465;42.144;24.722;2023-07-09T01:53:13;148390.47;;;21.86;73.27
6853;BME280;3465;42.144;24.722;2023-07-09T01:55:39;148396.81;;;21.88;72.96
6853;BME280;3465;42.144;24.722;2023-07-09T01:58:05;148391.75;;;21.86;73.25
6853;BME280;3465;42.144;24.722;2023-07-09T02:00:32;148398.03;;;21.89;72.76
6853;BME280;3465;42.144;24.722;2023-07-09T02:02:59;148379.09;;;21.81;73.40
6853;BME280;3465;42.144;24.722;2023-07-09T02:05:30;148357.56;;;21.73;73.53
6853;BME280;3465;42.144;24.722;2023-07-09T02:07:55;148377.81;;;21.81;73.09
6853;BME280;3465;42.144;24.722;2023-07-09T02:10:20;148351.25;;;21.70;73.48
6853;BME280;3465;42.144;24.722;2023-07-09T02:12:47;148347.47;;;21.69;73.43
6853;BME280;3465;42.144;24.722;2023-07-09T02:15:13;148358.81;;;21.73;73.00
6853;BME280;3465;42.144;24.722;2023-07-09T02:17:39;148353.75;;;21.71;72.95
6853;BME280;3465;42.144;24.722;2023-07-09T02:20:05;148331.03;;;21.62;72.80
6853;BME280;3465;42.144;24.722;2023-07-09T02:22:32;148336.09;;;21.64;72.93
6853;BME280;3465;42.144;24.722;2023-07-09T02:24:58;148346.19;;;21.68;72.91
6853;BME280;3465;42.144;24.722;2023-07-09T02:27:23;148331.03;;;21.62;72.60
6853;BME280;3465;42.144;24.722;2023-07-09T02:29:49;148300.69;;;21.50;72.54
6853;BME280;3465;42.144;24.722;2023-07-09T02:32:21;148329.75;;;21.62;72.43
6853;BME280;3465;42.144;24.722;2023-07-09T02:34:47;148334.81;;;21.64;72.63
6853;BME280;3465;42.144;24.722;2023-07-09T02:37:22;148317.09;;;21.57;72.34
6853;BME280;3465;42.144;24.722;2023-07-09T02:39:48;148310.81;;;21.54;72.49
6853;BME280;3465;42.144;24.722;2023-07-09T02:42:15;148307.03;;;21.53;72.42
6853;BME280;3465;42.144;24.722;2023-07-09T02:44:41;148312.09;;;21.55;71.98
6853;BME280;3465;42.144;24.722;2023-07-09T02:47:07;148296.88;;;21.49;72.59
6853;BME280;3465;42.144;24.722;2023-07-09T02:49:33;148291.88;;;21.47;72.66
6853;BME280;3465;42.144;24.722;2023-07-09T02:51:59;148289.31;;;21.46;73.11
6853;BME280;3465;42.144;24.722;2023-07-09T02:54:24;148294.38;;;21.48;72.89
6853;BME280;3465;42.144;24.722;2023-07-09T02:56:50;148274.16;;;21.40;73.47
6853;BME280;3465;42.144;24.722;2023-07-09T02:59:15;148289.31;;;21.46;73.49
6853;BME280;3465;42.144;24.722;2023-07-09T03:01:41;148281.75;;;21.43;73.65
6853;BME280;3465;42.144;24.722;2023-07-09T03:04:06;148256.47;;;21.33;73.96
6853;BME280;3465;42.144;24.722;2023-07-09T03:06:34;148296.88;;;21.49;73.55
6853;BME280;3465;42.144;24.722;2023-07-09T03:09:01;148275.44;;;21.40;73.05
6853;BME280;3465;42.144;24.722;2023-07-09T03:11:31;148281.75;;;21.43;73.67
6853;BME280;3465;42.144;24.722;2023-07-09T03:13:58;148289.31;;;21.46;73.41
6853;BME280;3465;42.144;24.722;2023-07-09T03:16:26;148261.53;;;21.35;73.60
6853;BME280;3465;42.144;24.722;2023-07-09T03:18:52;148259.00;;;21.34;73.79
6853;BME280;3465;42.144;24.722;2023-07-09T03:21:18;148270.38;;;21.38;73.93
6853;BME280;3465;42.144;24.722;2023-07-09T03:23:43;148253.94;;;21.32;74.23
6853;BME280;3465;42.144;24.722;2023-07-09T03:26:09;148231.22;;;21.22;74.89
6853;BME280;3465;42.144;24.722;2023-07-09T03:28:34;148241.31;;;21.26;74.04
6853;BME280;3465;42.144;24.722;2023-07-09T03:31:00;148241.31;;;21.26;74.59
6853;BME280;3465;42.144;24.722;2023-07-09T03:33:25;148241.31;;;21.26;74.28
6853;BME280;3465;42.144;24.722;2023-07-09T03:35:51;148238.78;;;21.25;73.89
6853;BME280;3465;42.144;24.722;2023-07-09T03:38:17;148245.09;;;21.28;74.32
6853;BME280;3465;42.144;24.722;2023-07-09T03:40:43;148250.16;;;21.30;74.44
6853;BME280;3465;42.144;24.722;2023-07-09T03:43:09;148242.59;;;21.27;74.38
6853;BME280;3465;42.144;24.722;2023-07-09T03:45:36;148246.38;;;21.28;74.47
6853;BME280;3465;42.144;24.722;2023-07-09T03:48:02;148257.72;;;21.33;74.23
6853;BME280;3465;42.144;24.722;2023-07-09T03:50:28;148272.88;;;21.39;73.66
6853;BME280;3465;42.144;24.722;2023-07-09T03:52:53;148276.66;;;21.41;73.66
6853;BME280;3465;42.144;24.722;2023-07-09T03:55:19;148279.22;;;21.42;73.88
6853;BME280;3465;42.144;24.722;2023-07-09T03:57:45;148262.78;;;21.35;73.73
6853;BME280;3465;42.144;24.722;2023-07-09T04:00:11;148276.66;;;21.41;74.26
6853;BME280;3465;42.144;24.722;2023-07-09T04:02:38;148277.94;;;21.41;73.58
6853;BME280;3465;42.144;24.722;2023-07-09T04:05:04;148285.53;;;21.44;73.60
6853;BME280;3465;42.144;24.722;2023-07-09T04:07:29;148290.59;;;21.46;73.75
6853;BME280;3465;42.144;24.722;2023-07-09T04:09:55;148301.94;;;21.51;73.74
6853;BME280;3465;42.144;24.722;2023-07-09T04:12:20;148295.66;;;21.48;73.55
6853;BME280;3465;42.144;24.722;2023-07-09T04:14:45;148318.38;;;21.57;73.58
6853;BME280;3465;42.144;24.722;2023-07-09T04:17:11;148329.75;;;21.62;73.30
6853;BME280;3465;42.144;24.722;2023-07-09T04:19:37;148317.09;;;21.57;73.42
6853;BME280;3465;42.144;24.722;2023-07-09T04:22:02;148324.72;;;21.60;73.16
6853;BME280;3465;42.144;24.722;2023-07-09T04:24:28;148352.53;;;21.71;73.13
6853;BME280;3465;42.144;24.722;2023-07-09T04:26:53;148384.16;;;21.83;72.40
6853;BME280;3465;42.144;24.722;2023-07-09T04:29:24;148391.75;;;21.86;72.26
6853;BME280;3465;42.144;24.722;2023-07-09T04:31:50;148406.91;;;21.92;71.55
6853;BME280;3465;42.144;24.722;2023-07-09T04:34:15;148406.91;;;21.92;72.05
6853;BME280;3465;42.144;24.722;2023-07-09T04:36:40;148418.28;;;21.97;71.87
6853;BME280;3465;42.144;24.722;2023-07-09T04:39:06;148430.91;;;22.02;71.53
6853;BME280;3465;42.144;24.722;2023-07-09T04:41:32;148443.56;;;22.07;71.26
6853;BME280;3465;42.144;24.722;2023-07-09T04:43:58;148463.81;;;22.15;71.09
6853;BME280;3465;42.144;24.722;2023-07-09T04:46:23;148466.34;;;22.16;71.11
6853;BME280;3465;42.144;24.722;2023-07-09T04:48:49;148484.03;;;22.23;70.75
6853;BME280;3465;42.144;24.722;2023-07-09T04:51:14;148502.97;;;22.30;70.37
6853;BME280;3465;42.144;24.722;2023-07-09T04:53:39;148511.84;;;22.34;70.54
6853;BME280;3465;42.144;24.722;2023-07-09T04:56:06;148518.19;;;22.36;69.76
6853;BME280;3465;42.144;24.722;2023-07-09T04:58:31;148534.63;;;22.43;69.49
6853;BME280;3465;42.144;24.722;2023-07-09T05:00:58;148548.50;;;22.48;69.40
6853;BME280;3465;42.144;24.722;2023-07-09T05:03:23;148567.56;;;22.56;68.02
6853;BME280;3465;42.144;24.722;2023-07-09T05:05:49;148566.28;;;22.55;67.65
6853;BME280;3465;42.144;24.722;2023-07-09T05:08:14;148580.16;;;22.61;68.76
6853;BME280;3465;42.144;24.722;2023-07-09T05:10:49;148599.19;;;22.69;69.21
6853;BME280;3465;42.144;24.722;2023-07-09T05:13:15;148608.03;;;22.72;66.45
6853;BME280;3465;42.144;24.722;2023-07-09T05:15:45;148635.88;;;22.83;66.04
6853;BME280;3465;42.144;24.722;2023-07-09T05:18:12;148661.13;;;22.93;65.27
6853;BME280;3465;42.144;24.722;2023-07-09T05:20:37;148663.69;;;22.94;64.33
6853;BME280;3465;42.144;24.722;2023-07-09T05:23:03;148676.34;;;22.99;63.99
6853;BME280;3465;42.144;24.722;2023-07-09T05:25:28;148687.72;;;23.04;64.77
6853;BME280;3465;42.144;24.722;2023-07-09T05:27:54;148704.19;;;23.10;63.54
6853;BME280;3465;42.144;24.722;2023-07-09T05:30:20;148730.72;;;23.21;63.76
6853;BME280;3465;42.144;24.722;2023-07-09T05:32:46;148709.25;;;23.12;63.35
6853;BME280;3465;42.144;24.722;2023-07-09T05:35:11;148732.00;;;23.21;63.75
6853;BME280;3465;42.144;24.722;2023-07-09T05:37:37;148772.56;;;23.37;62.38
6853;BME280;3465;42.144;24.722;2023-07-09T05:40:04;148778.84;;;23.40;63.21
6853;BME280;3465;42.144;24.722;2023-07-09T05:42:31;148810.53;;;23.52;61.87
6853;BME280;3465;42.144;24.722;2023-07-09T05:44:57;148834.56;;;23.62;60.83
6853;BME280;3465;42.144;24.722;2023-07-09T05:47:22;148837.09;;;23.63;62.02
6853;BME280;3465;42.144;24.722;2023-07-09T05:49:48;148853.56;;;23.69;61.57
6853;BME280;3465;42.144;24.722;2023-07-09T05:52:16;148842.16;;;23.65;61.37
6853;BME280;3465;42.144;24.722;2023-07-09T05:54:42;148868.72;;;23.75;62.45
6853;BME280;3465;42.144;24.722;2023-07-09T05:57:07;148883.91;;;23.81;61.78
6853;BME280;3465;42.144;24.722;2023-07-09T05:59:33;148896.56;;;23.86;60.85
6853;BME280;3465;42.144;24.722;2023-07-09T06:01:58;148905.44;;;23.90;59.89
6853;BME280;3465;42.144;24.722;2023-07-09T06:04:25;148913.03;;;23.93;59.85
6853;BME280;3465;42.144;24.722;2023-07-09T06:06:51;148921.91;;;23.96;59.97
6853;BME280;3465;42.144;24.722;2023-07-09T06:09:17;148962.47;;;24.13;59.40
6853;BME280;3465;42.144;24.722;2023-07-09T06:11:42;148985.25;;;24.22;59.58
6853;BME280;3465;42.144;24.722;2023-07-09T06:14:09;148978.94;;;24.19;59.67
6853;BME280;3465;42.144;24.722;2023-07-09T06:16:35;148984.00;;;24.21;58.57
6853;BME280;3465;42.144;24.722;2023-07-09T06:19:01;148997.91;;;24.27;59.20
6853;BME280;3465;42.144;24.722;2023-07-09T06:21:26;149011.88;;;24.32;59.39
6853;BME280;3465;42.144;24.722;2023-07-09T06:23:51;149049.81;;;24.47;58.16
6853;BME280;3465;42.144;24.722;2023-07-09T06:26:17;149065.06;;;24.53;58.24
6853;BME280;3465;42.144;24.722;2023-07-09T06:28:42;149115.75;;;24.73;56.78
6853;BME280;3465;42.144;24.722;2023-07-09T06:31:08;149137.31;;;24.82;57.61
6853;BME280;3465;42.144;24.722;2023-07-09T06:33:33;149180.38;;;24.99;56.33
6853;BME280;3465;42.144;24.722;2023-07-09T06:36:00;149184.16;;;25.00;55.28
6853;BME280;3465;42.144;24.722;2023-07-09T06:38:26;149199.41;;;25.06;55.78
6853;BME280;3465;42.144;24.722;2023-07-09T06:40:53;149205.72;;;25.09;54.97
6853;BME280;3465;42.144;24.722;2023-07-09T06:43:18;149256.44;;;25.29;54.43
6853;BME280;3465;42.144;24.722;2023-07-09T06:45:59;149289.38;;;25.42;54.33
6853;BME280;3465;42.144;24.722;2023-07-09T06:48:26;149332.50;;;25.59;53.99
6853;BME280;3465;42.144;24.722;2023-07-09T06:50:53;149399.69;;;25.86;54.06
6853;BME280;3465;42.144;24.722;2023-07-09T06:53:20;149439.06;;;26.01;53.04
6853;BME280;3465;42.144;24.722;2023-07-09T06:55:46;149498.66;;;26.25;52.38
6853;BME280;3465;42.144;24.722;2023-07-09T06:58:12;149562.06;;;26.50;50.76
6853;BME280;3465;42.144;24.722;2023-07-09T07:00:38;149611.59;;;26.69;50.06
6853;BME280;3465;42.144;24.722;2023-07-09T07:03:04;149678.81;;;26.96;52.41
6853;BME280;3465;42.144;24.722;2023-07-09T07:05:30;149744.81;;;27.22;50.94
6853;BME280;3465;42.144;24.722;2023-07-09T07:07:56;149795.66;;;27.42;50.05
6853;BME280;3465;42.144;24.722;2023-07-09T07:10:22;149880.69;;;27.76;49.98
6853;BME280;3465;42.144;24.722;2023-07-09T07:12:48;149998.84;;;28.23;48.57
6853;BME280;3465;42.144;24.722;2023-07-09T07:15:15;150100.50;;;28.63;45.13
6853;BME280;3465;42.144;24.722;2023-07-09T07:17:42;150211.03;;;29.06;44.10
6853;BME280;3465;42.144;24.722;2023-07-09T07:20:09;150344.53;;;29.59;42.13
6853;BME280;3465;42.144;24.722;2023-07-09T07:22:35;150432.28;;;29.94;40.89
6853;BME280;3465;42.144;24.722;2023-07-09T07:25:00;150590.03;;;30.56;41.74
6853;BME280;3465;42.144;24.722;2023-07-09T07:27:26;150781.03;;;31.31;40.53
6853;BME280;3465;42.144;24.722;2023-07-09T07:29:51;150926.16;;;31.88;39.70
6853;BME280;3465;42.144;24.722;2023-07-09T07:32:17;150956.69;;;32.00;40.79
6853;BME280;3465;42.144;24.722;2023-07-09T07:34:42;150927.47;;;31.89;37.89
6853;BME280;3465;42.144;24.722;2023-07-09T07:37:08;151067.56;;;32.44;40.47
6853;BME280;3465;42.144;24.722;2023-07-09T07:39:33;151096.84;;;32.56;37.70
6853;BME280;3465;42.144;24.722;2023-07-09T07:41:59;151413.00;;;33.80;36.07
6853;BME280;3465;42.144;24.722;2023-07-09T07:44:24;151606.88;;;34.56;33.70
6853;BME280;3465;42.144;24.722;2023-07-09T07:46:49;151714.09;;;34.99;31.86
6853;BME280;3465;42.144;24.722;2023-07-09T07:49:15;151805.94;;;35.35;31.74
6853;BME280;3465;42.144;24.722;2023-07-09T07:51:41;152033.25;;;36.24;29.98
6853;BME280;3465;42.144;24.722;2023-07-09T07:54:06;152213.44;;;36.95;28.78
6853;BME280;3465;42.144;24.722;2023-07-09T07:56:36;152305.41;;;37.31;28.02
6853;BME280;3465;42.144;24.722;2023-07-09T07:59:02;152394.84;;;37.66;28.06
6853;BME280;3465;42.144;24.722;2023-07-09T08:01:27;152449.88;;;37.88;27.74
6853;BME280;3465;42.144;24.722;2023-07-09T08:03:53;152531.72;;;38.20;26.65
6853;BME280;3465;42.144;24.722;2023-07-09T08:06:19;152618.66;;;38.54;26.77
6853;BME280;3465;42.144;24.722;2023-07-09T08:08:44;152608.41;;;38.50;26.82
6853;BME280;3465;42.144;24.722;2023-07-09T08:11:09;152726.09;;;38.96;25.81
6853;BME280;3465;42.144;24.722;2023-07-09T08:13:36;152952.63;;;39.85;25.53
6853;BME280;3465;42.144;24.722;2023-07-09T08:16:01;153042.25;;;40.20;24.95
6853;BME280;3465;42.144;24.722;2023-07-09T08:18:27;153154.94;;;40.64;23.75
6853;BME280;3465;42.144;24.722;2023-07-09T08:20:52;153217.69;;;40.89;23.52
6853;BME280;3465;42.144;24.722;2023-07-09T08:23:18;153152.34;;;40.63;23.45
6853;BME280;3465;42.144;24.722;2023-07-09T08:25:44;153204.88;;;40.84;22.75
6853;BME280;3465;42.144;24.722;2023-07-09T08:28:17;153281.78;;;41.14;22.68
6853;BME280;3465;42.144;24.722;2023-07-09T08:30:42;153334.28;;;41.35;22.01
6853;BME280;3465;42.144;24.722;2023-07-09T08:33:07;153463.66;;;41.85;22.18
6853;BME280;3465;42.144;24.722;2023-07-09T08:35:33;153622.66;;;42.47;21.35
6853;BME280;3465;42.144;24.722;2023-07-09T08:37:58;153690.63;;;42.74;21.44
6853;BME280;3465;42.144;24.722;2023-07-09T08:40:24;153514.97;;;42.05;21.56
6853;BME280;3465;42.144;24.722;2023-07-09T08:42:52;153484.22;;;41.93;21.39
6853;BME280;3465;42.144;24.722;2023-07-09T08:48:37;153750.84;;;42.98;20.03
6853;BME280;3465;42.144;24.722;2023-07-09T08:51:12;153818.84;;;43.24;19.88
6853;BME280;3465;42.144;24.722;2023-07-09T08:53:39;153907.34;;;43.59;19.80
6853;BME280;3465;42.144;24.722;2023-07-09T08:56:09;153799.59;;;43.17;20.28
6853;BME280;3465;42.144;24.722;2023-07-09T08:58:36;153832.91;;;43.30;20.62
6853;BME280;3465;42.144;24.722;2023-07-09T09:01:05;153832.91;;;43.30;19.60
6853;BME280;3465;42.144;24.722;2023-07-09T09:03:44;153938.13;;;43.71;19.45
6853;BME280;3465;42.144;24.722;2023-07-09T09:06:13;153913.78;;;43.61;19.85
6853;BME280;3465;42.144;24.722;2023-07-09T09:16:45;153812.41;;;43.22;19.61
6853;BME280;3465;42.144;24.722;2023-07-09T09:19:27;153434.19;;;41.74;19.69
6853;BME280;3465;42.144;24.722;2023-07-09T09:22:00;153500.88;;;42.00;20.90
6853;BME280;3465;42.144;24.722;2023-07-09T09:27:02;153440.63;;;41.76;20.84
6853;BME280;3465;42.144;24.722;2023-07-09T09:29:28;153007.72;;;40.07;22.61
6853;BME280;3465;42.144;24.722;2023-07-09T09:31:56;153092.22;;;40.40;22.34
6853;BME280;3465;42.144;24.722;2023-07-09T09:34:27;153217.69;;;40.89;21.16
6853;BME280;3465;42.144;24.722;2023-07-09T09:36:54;153404.78;;;41.62;21.01
6853;BME280;3465;42.144;24.722;2023-07-09T09:39:22;153634.19;;;42.52;20.53
6853;BME280;3465;42.144;24.722;2023-07-09T09:41:47;153720.09;;;42.86;19.73
6853;BME280;3465;42.144;24.722;2023-07-09T09:44:26;153803.44;;;43.18;19.25
6853;BME280;3465;42.144;24.722;2023-07-09T09:46:52;153953.50;;;43.77;18.11
6853;BME280;3465;42.144;24.722;2023-07-09T09:49:20;153797.03;;;43.16;18.77
6853;BME280;3465;42.144;24.722;2023-07-09T09:51:46;153797.03;;;43.16;19.36
6853;BME280;3465;42.144;24.722;2023-07-09T09:54:21;153871.41;;;43.45;18.82
6853;BME280;3465;42.144;24.722;2023-07-09T09:56:49;153924.00;;;43.65;18.18
6853;BME280;3465;42.144;24.722;2023-07-09T09:59:25;154103.63;;;44.36;17.02
6853;BME280;3465;42.144;24.722;2023-07-09T10:02:15;153995.88;;;43.94;18.07
6853;BME280;3465;42.144;24.722;2023-07-09T10:04:42;153839.38;;;43.32;18.51
6853;BME280;3465;42.144;24.722;2023-07-09T10:07:17;153745.75;;;42.96;18.91
6853;BME280;3465;42.144;24.722;2023-07-09T10:09:51;153622.66;;;42.47;19.58
6853;BME280;3465;42.144;24.722;2023-07-09T10:12:52;153681.59;;;42.71;19.39
6853;BME280;3465;42.144;24.722;2023-07-09T10:15:38;153529.03;;;42.11;19.35
6853;BME280;3465;42.144;24.722;2023-07-09T10:21:12;153559.81;;;42.23;18.00
6853;BME280;3465;42.144;24.722;2023-07-09T10:23:50;153770.09;;;43.05;18.50
6853;BME280;3465;42.144;24.722;2023-07-09T10:26:26;153818.84;;;43.24;18.15
6853;BME280;3465;42.144;24.722;2023-07-09T10:35:01;153879.09;;;43.48;18.76
6853;BME280;3465;42.144;24.722;2023-07-09T10:37:56;154042.03;;;44.12;17.78
6853;BME280;3465;42.144;24.722;2023-07-09T10:40:55;153990.75;;;43.92;17.18
6853;BME280;3465;42.144;24.722;2023-07-09T10:46:33;153831.69;;;43.29;17.93
6853;BME280;3465;42.144;24.722;2023-07-09T10:49:01;153720.09;;;42.86;18.79
6853;BME280;3465;42.144;24.722;2023-07-09T10:54:37;153811.16;;;43.21;18.13
6853;BME280;3465;42.144;24.722;2023-07-09T10:56:59;153904.78;;;43.58;17.50
6853;BME280;3465;42.144;24.722;2023-07-09T10:59:30;153933.00;;;43.69;17.46
6853;BME280;3465;42.144;24.722;2023-07-09T11:05:04;154058.69;;;44.18;17.97
6853;BME280;3465;42.144;24.722;2023-07-09T11:07:36;154194.78;;;44.71;17.83
6853;BME280;3465;42.144;24.722;2023-07-09T11:10:10;154251.22;;;44.93;17.33
6853;BME280;3465;42.144;24.722;2023-07-09T11:12:43;154081.81;;;44.27;17.98
6853;BME280;3465;42.144;24.722;2023-07-09T11:15:14;153986.91;;;43.90;19.22
6853;BME280;3465;42.144;24.722;2023-07-09T11:17:45;153934.28;;;43.69;19.32
6853;BME280;3465;42.144;24.722;2023-07-09T11:20:24;153949.66;;;43.75;18.80
6853;BME280;3465;42.144;24.722;2023-07-09T11:23:02;153903.50;;;43.57;18.53
6853;BME280;3465;42.144;24.722;2023-07-09T11:25:41;153933.00;;;43.69;19.79
6853;BME280;3465;42.144;24.722;2023-07-09T11:28:08;153871.41;;;43.45;19.77
6853;BME280;3465;42.144;24.722;2023-07-09T11:30:53;153818.84;;;43.24;19.52
6853;BME280;3465;42.144;24.722;2023-07-09T11:33:26;153831.69;;;43.29;19.54
6853;BME280;3465;42.144;24.722;2023-07-09T11:36:05;153690.63;;;42.74;20.09
6853;BME280;3465;42.144;24.722;2023-07-09T11:38:42;153680.28;;;42.70;19.98
6853;BME280;3465;42.144;24.722;2023-07-09T11:47:29;153094.75;;;40.41;21.45
6853;BME280;3465;42.144;24.722;2023-07-09T11:49:34;152884.84;;;39.58;23.02
6853;BME280;3465;42.144;24.722;2023-07-09T11:52:04;152800.31;;;39.25;22.67
6853;BME280;3465;42.144;24.722;2023-07-09T11:54:35;152526.59;;;38.18;23.46
6853;BME280;3465;42.144;24.722;2023-07-09T11:57:01;152559.84;;;38.31;23.78
6853;BME280;3465;42.144;24.722;2023-07-09T11:59:28;152649.38;;;38.66;23.46
6853;BME280;3465;42.144;24.722;2023-07-09T12:01:54;152655.75;;;38.69;23.86
6853;BME280;3465;42.144;24.722;2023-07-09T12:04:23;152645.56;;;38.65;23.83
6853;BME280;3465;42.144;24.722;2023-07-09T12:06:52;152754.28;;;39.07;22.00
6853;BME280;3465;42.144;24.722;2023-07-09T12:09:22;152801.63;;;39.26;22.27
6853;BME280;3465;42.144;24.722;2023-07-09T12:11:49;152911.69;;;39.69;21.48
6853;BME280;3465;42.144;24.722;2023-07-09T12:14:17;152950.09;;;39.84;22.01
6853;BME280;3465;42.144;24.722;2023-07-09T12:16:45;152941.13;;;39.80;22.01
6853;BME280;3465;42.144;24.722;2023-07-09T12:19:13;152959.03;;;39.87;22.45
6853;BME280;3465;42.144;24.722;2023-07-09T12:21:43;152946.25;;;39.82;22.64
6853;BME280;3465;42.144;24.722;2023-07-09T12:24:23;153051.22;;;40.24;22.34
6853;BME280;3465;42.144;24.722;2023-07-09T12:26:56;153099.88;;;40.43;21.32
6853;BME280;3465;42.144;24.722;2023-07-09T12:29:50;152941.13;;;39.80;22.65
6853;BME280;3465;42.144;24.722;2023-07-09T12:32:17;152864.38;;;39.50;22.50
6853;BME280;3465;42.144;24.722;2023-07-09T12:34:53;153002.59;;;40.05;22.31
6853;BME280;3465;42.144;24.722;2023-07-09T12:37:20;153076.88;;;40.34;21.82
6853;BME280;3465;42.144;24.722;2023-07-09T12:39:49;152956.50;;;39.86;23.54
6853;BME280;3465;42.144;24.722;2023-07-09T12:42:30;152856.66;;;39.47;23.01
6853;BME280;3465;42.144;24.722;2023-07-09T12:44:57;152622.50;;;38.55;23.41
6853;BME280;3465;42.144;24.722;2023-07-09T12:47:24;152521.47;;;38.16;24.37
6853;BME280;3465;42.144;24.722;2023-07-09T12:49:50;152406.41;;;37.71;24.98
6853;BME280;3465;42.144;24.722;2023-07-09T12:52:22;152296.47;;;37.27;25.43
6853;BME280;3465;42.144;24.722;2023-07-09T12:54:57;152247.88;;;37.08;25.82
6853;BME280;3465;42.144;24.722;2023-07-09T12:57:23;152178.91;;;36.81;25.62
6853;BME280;3465;42.144;24.722;2023-07-09T12:59:49;152037.09;;;36.26;25.85
6853;BME280;3465;42.144;24.722;2023-07-09T13:02:24;152024.31;;;36.21;26.36
6853;BME280;3465;42.144;24.722;2023-07-09T13:04:59;151987.28;;;36.06;26.87
6853;BME280;3465;42.144;24.722;2023-07-09T13:07:38;151917.03;;;35.78;26.98
6853;BME280;3465;42.144;24.722;2023-07-09T13:10:11;151864.72;;;35.58;27.85
6853;BME280;3465;42.144;24.722;2023-07-09T13:12:39;151839.16;;;35.48;27.89
6853;BME280;3465;42.144;24.722;2023-07-09T13:15:06;151817.47;;;35.39;28.62
6853;BME280;3465;42.144;24.722;2023-07-09T13:17:31;151836.63;;;35.47;28.56
6853;BME280;3465;42.144;24.722;2023-07-09T13:19:57;151857.06;;;35.55;27.61
6853;BME280;3465;42.144;24.722;2023-07-09T13:22:23;151823.88;;;35.42;28.34
6853;BME280;3465;42.144;24.722;2023-07-09T13:24:49;151757.44;;;35.16;28.22
6853;BME280;3465;42.144;24.722;2023-07-09T13:27:15;151761.28;;;35.17;28.80
6853;BME280;3465;42.144;24.722;2023-07-09T13:29:41;151696.22;;;34.92;28.98
6853;BME280;3465;42.144;24.722;2023-07-09T13:32:11;151688.56;;;34.89;29.05
6853;BME280;3465;42.144;24.722;2023-07-09T13:34:37;151679.56;;;34.85;29.68
6853;BME280;3465;42.144;24.722;2023-07-09T13:37:05;151710.28;;;34.97;28.97
6853;BME280;3465;42.144;24.722;2023-07-09T13:39:30;151731.91;;;35.06;28.61
6853;BME280;3465;42.144;24.722;2023-07-09T13:41:56;151701.34;;;34.94;28.79
6853;BME280;3465;42.144;24.722;2023-07-09T13:44:25;151647.69;;;34.72;28.87
6853;BME280;3465;42.144;24.722;2023-07-09T13:46:53;151563.53;;;34.39;28.84